Kingman, Illinois
Current Conditions -  °F | °C
As of 1:55 PM on Monday 22 Dec 2014 (Local Time) from K1H2 Reporting Station
Light Rain Light Rain  
Wind Chill: 40°   Ceiling: 700
Heat Index: 46°   Visibility: 4mi
Dew Point: 43°   Wind: 13mph
Humidity: 90%   Direction: 110°ESE
Pressure: 29.67"   Gusts: NA
Location:  39.2838°N, 88.6429°W
Report Text: K1H2 221955Z AUTO 11011KT 4SM -RA OVC007 08/06 A2967 RMK AO2 P0002 T00780062
Loading
Personal Weather Stations






























Interactive Weather Map New forecast layout! Learn more

10-Day Weather Forecast

Advertisements
Track Severe Weather on mobile